Time;durP1;ratioP1;P1;durP2;ratioP2;P2;SDS_P1;SDS_P2;PMS_P1;PMS_P2;Temp;Humidity;BMP_temperature;BMP_pressure;BME280_temperature;BME280_humidity;BME280_pressure;Samples;Min_cycle;Max_cycle;Signal;HPM_P1;HPM_P2
2021/12/01 00:00:17;;;;;;;5.40;2.63;;;8.00;99.90;;;;;;4826345;29;20050;-91
2021/12/01 00:02:43;;;;;;;3.47;1.65;;;8.10;99.90;;;;;;4807895;29;20066;-91
2021/12/01 00:05:09;;;;;;;5.65;3.00;;;8.40;99.90;;;;;;4807920;29;20055;-94
2021/12/01 00:07:36;;;;;;;5.13;2.55;;;8.80;99.90;;;;;;4808769;29;20062;-92
2021/12/01 00:10:07;;;;;;;5.00;2.75;;;8.90;99.90;;;;;;4843799;29;20419;-91
2021/12/01 00:12:33;;;;;;;4.75;2.47;;;8.60;99.90;;;;;;4840691;29;20061;-92
2021/12/01 00:14:59;;;;;;;4.07;2.22;;;8.30;99.90;;;;;;4828526;29;20054;-92
2021/12/01 00:17:25;;;;;;;5.82;3.15;;;8.70;99.90;;;;;;4842132;29;20083;-85
2021/12/01 00:19:51;;;;;;;7.18;3.70;;;9.20;99.90;;;;;;4843669;29;20061;-90
2021/12/01 00:22:17;;;;;;;5.30;3.10;;;9.20;99.90;;;;;;4834611;29;20058;-91
2021/12/01 00:24:43;;;;;;;6.65;3.50;;;9.40;99.90;;;;;;4825064;29;20058;-90
2021/12/01 00:27:08;;;;;;;6.55;3.72;;;9.50;99.90;;;;;;4825020;29;20405;-90
2021/12/01 00:29:34;;;;;;;7.80;4.47;;;8.80;99.90;;;;;;4808705;29;20058;-90
2021/12/01 00:32:00;;;;;;;10.50;5.82;;;9.40;99.90;;;;;;4825760;29;20570;-91
2021/12/01 00:34:26;;;;;;;11.90;5.50;;;8.70;99.90;;;;;;4826098;29;20549;-84
2021/12/01 00:36:52;;;;;;;9.90;5.85;;;8.80;99.90;;;;;;4825093;29;20058;-82
2021/12/01 00:39:18;;;;;;;17.05;7.50;;;9.30;99.90;;;;;;4808478;29;20066;-90
2021/12/01 00:41:44;;;;;;;13.25;7.53;;;9.10;99.90;;;;;;4812665;29;20399;-91
2021/12/01 00:44:10;;;;;;;9.88;6.07;;;9.40;99.90;;;;;;4829773;29;20050;-90
2021/12/01 00:46:40;;;;;;;16.27;7.20;;;9.20;99.90;;;;;;4824661;29;20069;-90
2021/12/01 00:49:06;;;;;;;21.35;8.82;;;9.40;99.90;;;;;;4824726;29;20145;-90
2021/12/01 00:51:32;;;;;;;17.50;9.43;;;9.10;99.90;;;;;;4824677;29;20097;-90
2021/12/01 00:53:58;;;;;;;16.35;7.97;;;9.80;99.90;;;;;;4830800;29;20045;-89
2021/12/01 00:56:23;;;;;;;14.40;8.80;;;9.40;99.90;;;;;;4842838;29;20083;-90
2021/12/01 00:58:51;;;;;;;17.80;8.43;;;9.70;99.90;;;;;;4843016;29;20132;-91
2021/12/01 01:01:17;;;;;;;15.02;8.88;;;10.00;99.90;;;;;;4826381;29;20088;-90
2021/12/01 01:03:42;;;;;;;17.63;10.35;;;9.50;99.90;;;;;;4825744;29;20540;-90
2021/12/01 01:06:08;;;;;;;12.40;7.93;;;9.90;99.90;;;;;;4841844;29;20061;-92
2021/12/01 01:08:34;;;;;;;16.23;8.40;;;9.30;99.90;;;;;;4826195;29;20054;-91
2021/12/01 01:16:25;;;;;;;19.17;9.85;;;10.10;99.90;;;;;;4840485;29;20065;-90
2021/12/01 01:18:52;;;;;;;14.98;8.70;;;9.30;99.90;;;;;;4826472;29;20062;-89
2021/12/01 01:21:19;;;;;;;15.30;8.43;;;9.30;99.90;;;;;;4826514;29;20476;-84
2021/12/01 01:23:45;;;;;;;15.40;8.75;;;9.70;99.90;;;;;;4826298;29;20076;-91
2021/12/01 01:26:14;;;;;;;14.05;7.63;;;9.60;99.90;;;;;;4840569;29;20049;-91
2021/12/01 01:28:42;;;;;;;14.18;8.35;;;9.50;99.90;;;;;;4825866;29;20499;-89
2021/12/01 01:31:08;;;;;;;9.70;7.45;;;9.40;99.90;;;;;;4842414;29;20500;-90
2021/12/01 01:33:34;;;;;;;13.77;7.78;;;10.20;99.90;;;;;;4825941;29;20054;-90
2021/12/01 01:36:00;;;;;;;13.70;7.20;;;9.40;99.90;;;;;;4839630;29;20068;-89
2021/12/01 01:38:28;;;;;;;15.57;7.60;;;9.60;99.90;;;;;;4824512;29;20061;-91
2021/12/01 01:40:54;;;;;;;14.45;6.75;;;9.40;99.90;;;;;;4826046;29;20058;-90
2021/12/01 01:43:20;;;;;;;13.52;7.22;;;9.50;99.90;;;;;;4824224;29;20089;-90
2021/12/01 01:45:46;;;;;;;14.35;6.53;;;9.40;99.90;;;;;;4825887;29;20093;-92
2021/12/01 01:48:14;;;;;;;12.60;6.47;;;9.40;99.90;;;;;;4829843;29;20058;-91
2021/12/01 01:50:42;;;;;;;12.23;6.82;;;9.60;99.90;;;;;;4842300;29;20060;-91
2021/12/01 01:53:19;;;;;;;12.57;6.57;;;9.50;99.90;;;;;;4825507;29;20399;-91
2021/12/01 01:55:47;;;;;;;15.18;6.22;;;9.50;99.90;;;;;;4825852;29;20515;-92
2021/12/01 01:58:14;;;;;;;13.88;6.65;;;9.60;99.90;;;;;;4816709;29;20063;-91
2021/12/01 02:00:51;;;;;;;10.93;6.00;;;9.60;99.90;;;;;;4824075;29;20050;-91
2021/12/01 02:03:20;;;;;;;9.90;5.28;;;10.10;99.90;;;;;;4823975;29;20054;-91
2021/12/01 02:05:46;;;;;;;10.38;4.75;;;9.60;99.90;;;;;;4824026;29;20141;-93
2021/12/01 02:08:29;;;;;;;11.60;4.70;;;10.40;99.90;;;;;;4808563;29;20125;-91
2021/12/01 02:10:57;;;;;;;11.60;4.95;;;10.20;99.90;;;;;;4824176;29;20069;-92
2021/12/01 02:13:24;;;;;;;9.13;4.13;;;9.70;99.90;;;;;;4807411;29;20103;-88
2021/12/01 02:15:52;;;;;;;14.02;4.03;;;9.60;99.90;;;;;;4824042;29;20096;-94
2021/12/01 02:18:18;;;;;;;7.57;3.00;;;9.60;99.90;;;;;;4809284;29;20047;-91
2021/12/01 02:21:15;;;;;;;12.98;4.30;;;9.80;99.90;;;;;;4841945;29;20087;-89
2021/12/01 02:23:46;;;;;;;10.25;2.90;;;9.70;99.90;;;;;;4804261;29;20058;-93
2021/12/01 02:26:15;;;;;;;6.50;2.30;;;10.00;99.90;;;;;;4792936;29;20559;-93
2021/12/01 02:28:43;;;;;;;7.38;2.03;;;10.40;99.90;;;;;;4824015;29;20134;-92
2021/12/01 02:31:09;;;;;;;9.07;2.40;;;9.70;99.90;;;;;;4825471;29;20066;-92
2021/12/01 02:33:35;;;;;;;5.82;1.90;;;10.70;99.90;;;;;;4840119;29;20114;-92
2021/12/01 02:36:01;;;;;;;5.55;1.40;;;9.80;99.90;;;;;;4825211;29;20050;-81
2021/12/01 02:38:27;;;;;;;4.45;1.60;;;10.80;99.90;;;;;;4825437;29;20081;-92
2021/12/01 02:40:52;;;;;;;6.63;1.23;;;10.50;99.90;;;;;;4813220;29;20053;-81
2021/12/01 02:43:23;;;;;;;3.13;1.10;;;10.30;99.90;;;;;;4824587;29;20500;-90
2021/12/01 02:45:51;;;;;;;1.67;0.80;;;9.80;99.90;;;;;;4807486;29;20054;-81
2021/12/01 02:48:17;;;;;;;4.72;0.82;;;9.70;99.90;;;;;;4823302;29;20419;-90
2021/12/01 02:50:43;;;;;;;3.67;0.50;;;9.70;99.90;;;;;;4812185;29;20136;-90
2021/12/01 02:53:09;;;;;;;3.03;0.60;;;9.80;99.90;;;;;;4840045;29;20449;-91
2021/12/01 02:55:41;;;;;;;1.52;0.40;;;9.70;99.90;;;;;;4841384;29;20118;-91
2021/12/01 02:58:08;;;;;;;4.65;0.63;;;10.60;99.90;;;;;;4823726;29;20396;-87
2021/12/01 03:00:34;;;;;;;1.38;0.38;;;9.70;99.90;;;;;;4825003;29;20102;-92
2021/12/01 03:03:00;;;;;;;4.30;0.68;;;10.20;99.90;;;;;;4841399;29;20100;-91
2021/12/01 03:05:26;;;;;;;2.03;0.60;;;9.90;99.90;;;;;;4842154;29;20057;-90
2021/12/01 03:07:53;;;;;;;3.20;0.88;;;9.70;99.90;;;;;;4842311;29;20122;-89
2021/12/01 03:10:19;;;;;;;5.40;0.80;;;9.90;99.90;;;;;;4810931;29;20065;-90
2021/12/01 03:12:45;;;;;;;4.35;1.08;;;10.40;99.90;;;;;;4826127;29;20058;-90
2021/12/01 03:15:16;;;;;;;2.28;0.60;;;9.60;99.90;;;;;;4810991;29;20054;-90
2021/12/01 03:17:42;;;;;;;3.45;0.68;;;10.20;99.90;;;;;;4826056;29;20133;-89
2021/12/01 03:20:14;;;;;;;6.85;0.93;;;10.60;99.90;;;;;;4823354;29;20153;-84
2021/12/01 03:22:41;;;;;;;6.88;0.68;;;9.70;99.90;;;;;;4844533;29;20056;-89
2021/12/01 03:25:09;;;;;;;6.57;0.77;;;10.20;99.90;;;;;;4826131;29;20076;-90
2021/12/01 03:27:36;;;;;;;4.97;0.70;;;10.60;99.90;;;;;;4828041;29;20062;-89
2021/12/01 03:30:03;;;;;;;2.92;0.70;;;10.00;99.90;;;;;;4835312;29;20054;-91
2021/12/01 03:32:29;;;;;;;3.25;0.50;;;9.70;99.90;;;;;;4809565;29;20054;-90
2021/12/01 03:34:57;;;;;;;3.75;0.52;;;9.90;99.90;;;;;;4826023;29;20441;-89
2021/12/01 03:37:23;;;;;;;2.15;0.50;;;9.90;99.90;;;;;;4826804;29;20061;-81
2021/12/01 03:39:49;;;;;;;2.15;0.50;;;10.50;99.90;;;;;;4827376;29;20058;-82
2021/12/01 03:42:15;;;;;;;3.40;0.40;;;10.20;99.90;;;;;;4844131;29;20133;-80
2021/12/01 03:44:40;;;;;;;3.28;0.75;;;9.90;99.90;;;;;;4827506;29;20078;-90
2021/12/01 03:47:06;;;;;;;3.63;0.50;;;9.80;99.90;;;;;;4842331;29;20061;-90
2021/12/01 03:49:32;;;;;;;3.15;0.93;;;9.80;99.90;;;;;;4827443;29;20062;-89
2021/12/01 03:51:57;;;;;;;6.88;0.70;;;10.60;99.90;;;;;;4830332;29;20054;-89
2021/12/01 03:54:23;;;;;;;2.53;0.70;;;10.00;99.90;;;;;;4825624;29;20482;-85
2021/12/01 03:56:48;;;;;;;11.77;0.90;;;9.80;99.90;;;;;;4825827;29;20141;-89
2021/12/01 03:59:14;;;;;;;14.52;0.98;;;9.80;99.90;;;;;;4809922;29;20054;-91
2021/12/01 04:01:40;;;;;;;4.13;1.23;;;9.80;99.90;;;;;;4810114;29;20046;-90
2021/12/01 04:04:06;;;;;;;7.50;1.55;;;10.50;99.90;;;;;;4808896;29;20078;-84
2021/12/01 04:06:33;;;;;;;9.23;1.15;;;10.30;99.90;;;;;;4809039;29;20058;-84
2021/12/01 04:08:58;;;;;;;8.45;1.27;;;10.40;99.90;;;;;;4826280;29;20462;-90
2021/12/01 04:11:24;;;;;;;6.15;1.15;;;9.80;99.90;;;;;;4824998;29;20050;-81
2021/12/01 04:13:51;;;;;;;8.07;0.90;;;10.60;99.90;;;;;;4842411;29;20046;-90
2021/12/01 04:16:16;;;;;;;5.60;1.45;;;10.60;99.90;;;;;;4842916;29;20128;-89
2021/12/01 04:18:43;;;;;;;12.77;1.15;;;10.50;99.90;;;;;;4825471;29;20563;-90
2021/12/01 04:21:09;;;;;;;4.85;1.33;;;10.00;99.90;;;;;;4843646;29;20086;-90
2021/12/01 04:23:35;;;;;;;8.23;1.02;;;9.70;99.90;;;;;;4832371;29;20134;-90
2021/12/01 04:26:02;;;;;;;6.03;0.80;;;9.80;99.90;;;;;;4825158;29;20526;-89
2021/12/01 04:28:28;;;;;;;2.90;0.43;;;9.70;99.90;;;;;;4824819;29;20093;-90
2021/12/01 04:30:55;;;;;;;7.00;1.10;;;9.70;99.90;;;;;;4838614;29;20058;-90
2021/12/01 04:33:21;;;;;;;2.40;0.68;;;9.80;99.90;;;;;;4843362;29;20050;-90
2021/12/01 04:35:49;;;;;;;4.63;0.70;;;9.80;99.90;;;;;;4843012;29;20060;-90
2021/12/01 04:38:15;;;;;;;8.30;1.00;;;9.80;99.90;;;;;;4826846;29;20061;-91
2021/12/01 04:40:41;;;;;;;2.63;0.60;;;10.20;99.90;;;;;;4839914;29;20050;-84
2021/12/01 04:43:06;;;;;;;5.43;1.00;;;9.80;99.90;;;;;;4842910;29;20066;-91
2021/12/01 04:45:36;;;;;;;7.07;0.88;;;10.10;99.90;;;;;;4842981;29;20110;-89
2021/12/01 04:48:02;;;;;;;7.20;0.63;;;9.90;99.90;;;;;;4826580;29;20062;-90
2021/12/01 04:50:28;;;;;;;3.88;0.80;;;10.40;99.90;;;;;;4840800;29;20111;-91
2021/12/01 04:52:57;;;;;;;7.18;1.10;;;10.50;99.90;;;;;;4808816;29;20050;-91
2021/12/01 04:55:25;;;;;;;2.83;0.50;;;10.60;99.90;;;;;;4824853;29;20067;-85
2021/12/01 04:57:51;;;;;;;4.07;0.50;;;10.40;99.90;;;;;;4824787;29;20050;-89
2021/12/01 05:00:27;;;;;;;3.47;0.50;;;10.60;99.90;;;;;;4824600;29;20062;-91
2021/12/01 05:02:53;;;;;;;1.80;0.30;;;10.70;99.90;;;;;;4838055;29;20428;-83
2021/12/01 05:05:19;;;;;;;4.10;0.60;;;10.60;99.90;;;;;;4842863;29;20103;-90
2021/12/01 05:07:45;;;;;;;1.45;0.22;;;10.00;99.90;;;;;;4825875;29;20423;-90
2021/12/01 05:10:12;;;;;;;2.92;0.43;;;9.70;99.90;;;;;;4826792;29;20121;-91
2021/12/01 05:12:38;;;;;;;0.90;0.40;;;9.70;99.90;;;;;;4839233;29;20053;-90
2021/12/01 05:15:05;;;;;;;3.95;0.63;;;9.70;99.90;;;;;;4842601;29;20081;-90
2021/12/01 05:17:31;;;;;;;0.60;0.40;;;9.70;99.90;;;;;;4842451;29;20133;-92
2021/12/01 05:19:57;;;;;;;0.63;0.45;;;9.80;99.90;;;;;;4842672;29;20053;-90
2021/12/01 05:22:22;;;;;;;1.02;0.50;;;10.50;99.90;;;;;;4840211;29;20056;-90
2021/12/01 05:24:48;;;;;;;2.10;0.50;;;9.80;99.90;;;;;;4825165;29;20080;-91
2021/12/01 05:27:14;;;;;;;2.15;0.40;;;10.60;99.90;;;;;;4824051;29;20065;-86
2021/12/01 05:29:39;;;;;;;0.50;0.40;;;10.40;99.90;;;;;;4823593;29;20062;-90
2021/12/01 05:32:05;;;;;;;1.10;0.30;;;10.20;99.90;;;;;;4808120;29;20062;-88
2021/12/01 05:34:31;;;;;;;0.30;0.30;;;9.70;99.90;;;;;;4835375;29;20081;-89
2021/12/01 05:37:00;;;;;;;0.10;0.10;;;9.70;99.90;;;;;;4842402;29;20086;-90
2021/12/01 05:39:29;;;;;;;1.10;0.30;;;10.70;99.90;;;;;;4842579;29;20501;-90
2021/12/01 05:41:56;;;;;;;0.20;0.20;;;10.20;99.90;;;;;;4842270;29;20381;-90
2021/12/01 05:44:22;;;;;;;0.20;0.20;;;10.00;99.90;;;;;;4835661;29;20046;-92
2021/12/01 05:46:48;;;;;;;0.10;0.10;;;9.70;99.90;;;;;;4824205;29;20512;-92
2021/12/01 05:49:14;;;;;;;0.20;0.20;;;10.20;99.90;;;;;;4824192;29;20104;-91
2021/12/01 05:51:39;;;;;;;0.25;0.20;;;9.60;99.90;;;;;;4825066;29;20141;-91
2021/12/01 05:54:07;;;;;;;1.08;0.17;;;9.50;99.90;;;;;;4824779;29;20099;-90
2021/12/01 05:56:32;;;;;;;0.30;0.30;;;9.60;99.90;;;;;;4824924;29;20065;-89
2021/12/01 05:58:58;;;;;;;0.50;0.30;;;9.50;99.90;;;;;;4807504;29;20059;-90
2021/12/01 06:01:24;;;;;;;0.20;0.20;;;9.50;99.90;;;;;;4807457;29;20217;-81
2021/12/01 06:03:50;;;;;;;0.90;0.30;;;9.60;99.90;;;;;;4841937;29;20113;-92
2021/12/01 06:06:16;;;;;;;0.45;0.30;;;9.50;99.90;;;;;;4840596;29;20057;-89
2021/12/01 06:08:42;;;;;;;0.50;0.40;;;9.90;99.90;;;;;;4842175;29;20418;-91
2021/12/01 06:11:08;;;;;;;0.98;0.55;;;9.80;99.90;;;;;;4825517;29;20053;-92
2021/12/01 06:13:34;;;;;;;0.80;0.50;;;9.50;99.90;;;;;;4830187;29;20059;-92
2021/12/01 06:16:00;;;;;;;1.10;0.50;;;9.40;99.90;;;;;;4824751;29;20101;-89
2021/12/01 06:18:26;;;;;;;0.98;0.50;;;9.70;99.90;;;;;;4807765;29;20522;-90
2021/12/01 06:20:52;;;;;;;1.02;0.60;;;10.30;99.90;;;;;;4824183;29;20090;-90
2021/12/01 06:23:17;;;;;;;0.60;0.50;;;9.50;99.90;;;;;;4827892;29;20085;-90
2021/12/01 06:25:43;;;;;;;2.15;0.60;;;10.20;99.90;;;;;;4840271;29;20082;-80
2021/12/01 06:28:09;;;;;;;1.33;0.60;;;9.80;99.90;;;;;;4823718;29;20055;-83
2021/12/01 06:30:37;;;;;;;0.98;0.60;;;9.60;99.90;;;;;;4823777;29;20065;-92
2021/12/01 06:33:03;;;;;;;1.65;0.57;;;10.30;99.90;;;;;;4807207;29;20061;-93
2021/12/01 06:35:28;;;;;;;1.23;0.88;;;10.40;99.90;;;;;;4838969;29;20076;-91
2021/12/01 06:37:55;;;;;;;2.00;0.65;;;9.40;99.90;;;;;;4840345;29;20412;-91
2021/12/01 06:40:25;;;;;;;0.88;0.60;;;9.40;99.90;;;;;;4844449;29;20061;-90
2021/12/01 06:42:51;;;;;;;1.02;0.50;;;9.40;99.90;;;;;;4845467;29;20057;-92
2021/12/01 06:45:17;;;;;;;0.40;0.40;;;9.30;99.90;;;;;;4835274;29;20057;-92
2021/12/01 06:47:43;;;;;;;1.15;0.40;;;9.40;99.90;;;;;;4828077;29;20478;-92
2021/12/01 06:50:09;;;;;;;0.80;0.55;;;10.10;99.90;;;;;;4827430;29;20104;-92
2021/12/01 06:52:35;;;;;;;0.68;0.50;;;9.40;99.90;;;;;;4827110;29;20054;-91
2021/12/01 06:55:03;;;;;;;0.47;0.32;;;9.70;99.90;;;;;;4828651;29;20046;-86
2021/12/01 06:57:28;;;;;;;1.25;0.40;;;9.40;99.90;;;;;;4812224;29;20489;-92
2021/12/01 06:59:54;;;;;;;0.57;0.40;;;9.50;99.90;;;;;;4800705;29;20058;-91
2021/12/01 07:02:20;;;;;;;0.70;0.40;;;9.90;99.90;;;;;;4811819;29;20054;-93
2021/12/01 07:04:46;;;;;;;0.60;0.50;;;9.30;99.90;;;;;;4810403;29;20507;-91
2021/12/01 07:07:12;;;;;;;0.30;0.22;;;9.80;99.90;;;;;;4840799;29;20445;-92
2021/12/01 07:09:38;;;;;;;0.50;0.40;;;10.40;99.90;;;;;;4826759;29;20046;-91
2021/12/01 07:12:04;;;;;;;0.50;0.30;;;10.10;99.90;;;;;;4844810;29;20491;-92
2021/12/01 07:14:30;;;;;;;0.52;0.40;;;9.30;99.90;;;;;;4826689;29;20503;-91
2021/12/01 07:16:56;;;;;;;1.17;0.50;;;9.20;99.90;;;;;;4844631;29;20056;-91
2021/12/01 07:19:22;;;;;;;1.00;0.50;;;9.30;99.90;;;;;;4843066;29;20136;-91
2021/12/01 07:21:48;;;;;;;0.70;0.60;;;9.30;99.90;;;;;;4828914;29;20064;-88
2021/12/01 07:24:16;;;;;;;0.80;0.60;;;9.90;99.90;;;;;;4835060;29;20575;-91
2021/12/01 07:26:41;;;;;;;1.35;0.80;;;9.60;99.90;;;;;;4826508;29;20081;-91
2021/12/01 07:29:07;;;;;;;1.17;0.75;;;9.20;99.90;;;;;;4809994;29;20171;-90
2021/12/01 07:31:33;;;;;;;1.00;0.80;;;9.20;99.90;;;;;;4827086;29;20064;-92
2021/12/01 07:33:59;;;;;;;1.58;0.80;;;9.20;99.90;;;;;;4827096;29;20054;-91
2021/12/01 07:36:24;;;;;;;2.70;0.70;;;10.00;99.90;;;;;;4827420;29;20058;-90
2021/12/01 07:38:50;;;;;;;1.40;0.90;;;9.60;99.90;;;;;;4814237;29;20062;-92
2021/12/01 07:41:20;;;;;;;1.65;1.00;;;9.20;99.90;;;;;;4826916;29;20400;-92
2021/12/01 07:43:46;;;;;;;3.55;1.05;;;9.90;99.90;;;;;;4827977;29;20141;-91
2021/12/01 07:46:12;;;;;;;2.58;1.10;;;9.20;99.90;;;;;;4842037;29;20134;-88
2021/12/01 07:48:38;;;;;;;1.98;1.10;;;9.80;99.90;;;;;;4844153;29;20061;-81
2021/12/01 07:51:04;;;;;;;2.22;1.20;;;9.60;99.90;;;;;;4840682;29;20057;-89
2021/12/01 07:53:30;;;;;;;4.25;1.38;;;10.10;99.90;;;;;;4843678;29;20049;-92
2021/12/01 07:55:55;;;;;;;3.97;1.48;;;9.30;99.90;;;;;;4817307;29;20064;-89
2021/12/01 07:58:21;;;;;;;4.47;1.30;;;9.80;99.90;;;;;;4825715;29;20058;-91
2021/12/01 08:00:47;;;;;;;2.45;1.08;;;10.10;99.90;;;;;;4826586;29;20330;-89
2021/12/01 08:03:13;;;;;;;6.15;1.45;;;9.40;99.90;;;;;;4825455;29;20062;-90
2021/12/01 08:05:38;;;;;;;5.45;1.20;;;9.80;99.90;;;;;;4826399;29;20063;-84
2021/12/01 08:08:05;;;;;;;3.47;1.20;;;9.90;99.90;;;;;;4825089;29;20389;-83
2021/12/01 08:10:32;;;;;;;2.85;1.00;;;9.50;99.90;;;;;;4808629;29;20531;-82
2021/12/01 08:13:00;;;;;;;3.22;1.10;;;9.40;99.90;;;;;;4809308;29;20057;-82
2021/12/01 08:15:26;;;;;;;4.70;1.20;;;9.50;99.90;;;;;;4809008;29;20094;-82
2021/12/01 08:17:53;;;;;;;2.03;1.08;;;9.50;99.90;;;;;;4826426;29;20074;-82
2021/12/01 08:20:19;;;;;;;3.05;1.00;;;9.50;99.90;;;;;;4825123;29;20539;-82
2021/12/01 08:22:45;;;;;;;2.70;0.90;;;9.80;99.90;;;;;;4825969;29;20058;-81
2021/12/01 08:25:12;;;;;;;5.85;1.23;;;9.40;99.90;;;;;;4825163;29;20061;-82
2021/12/01 08:27:37;;;;;;;5.43;1.10;;;9.60;99.90;;;;;;4816459;29;20416;-83
2021/12/01 08:30:05;;;;;;;2.60;1.17;;;10.50;99.90;;;;;;4843146;29;20068;-82
2021/12/01 08:32:30;;;;;;;2.70;0.90;;;9.50;99.90;;;;;;4841550;29;20488;-83
2021/12/01 08:34:56;;;;;;;4.65;1.20;;;9.80;99.90;;;;;;4826675;29;20058;-84
2021/12/01 08:37:22;;;;;;;3.53;1.42;;;9.90;99.90;;;;;;4841397;29;20041;-82
2021/12/01 08:39:50;;;;;;;2.10;0.95;;;9.60;99.90;;;;;;4826269;29;20070;-85
2021/12/01 08:42:16;;;;;;;3.22;1.05;;;9.90;99.90;;;;;;4824893;29;20054;-83
2021/12/01 08:44:45;;;;;;;3.15;1.00;;;9.20;99.90;;;;;;4825831;29;20050;-85
2021/12/01 08:47:15;;;;;;;3.60;0.60;;;9.80;99.90;;;;;;4824734;29;20465;-82
2021/12/01 08:49:42;;;;;;;4.13;0.70;;;9.20;99.90;;;;;;4825450;29;20066;-81
2021/12/01 08:52:08;;;;;;;2.38;1.40;;;9.50;99.90;;;;;;4824829;29;20551;-91
2021/12/01 08:54:34;;;;;;;3.13;0.70;;;9.20;99.90;;;;;;4825803;29;20094;-92
2021/12/01 08:56:59;;;;;;;4.20;0.65;;;10.10;99.90;;;;;;4835069;29;20062;-88
2021/12/01 08:59:28;;;;;;;5.28;0.60;;;9.70;99.90;;;;;;4841867;29;20069;-84
2021/12/01 09:01:54;;;;;;;6.07;0.98;;;9.10;99.90;;;;;;4842424;29;20058;-88
2021/12/01 09:04:19;;;;;;;5.45;0.68;;;9.10;99.90;;;;;;4840762;29;20054;-83
2021/12/01 09:06:45;;;;;;;2.47;0.57;;;9.10;99.90;;;;;;4842616;29;20066;-87
2021/12/01 09:09:18;;;;;;;3.75;0.60;;;9.20;99.90;;;;;;4841366;29;20523;-85
2021/12/01 09:11:48;;;;;;;6.18;0.70;;;9.10;99.90;;;;;;4826117;29;20504;-88
2021/12/01 09:14:14;;;;;;;4.78;0.40;;;9.00;99.90;;;;;;4842676;29;20070;-89
2021/12/01 09:16:44;;;;;;;7.78;0.43;;;8.90;99.90;;;;;;4840933;29;20057;-90
2021/12/01 09:19:10;;;;;;;6.50;0.60;;;8.80;99.90;;;;;;4826459;29;20092;-88
2021/12/01 09:21:37;;;;;;;2.35;0.50;;;9.50;99.90;;;;;;4812699;29;20535;-87
2021/12/01 09:24:03;;;;;;;7.32;0.50;;;8.90;99.90;;;;;;4824370;29;20062;-84
2021/12/01 09:26:30;;;;;;;3.20;0.30;;;8.80;99.90;;;;;;4824778;29;20046;-81
2021/12/01 09:28:56;;;;;;;6.47;0.40;;;9.00;99.90;;;;;;4839237;29;20122;-83
2021/12/01 09:31:22;;;;;;;6.90;0.50;;;9.20;99.90;;;;;;4826009;29;20050;-81
2021/12/01 09:33:47;;;;;;;2.67;0.40;;;9.30;99.90;;;;;;4842049;29;20129;-83
2021/12/01 09:36:13;;;;;;;7.80;0.82;;;8.70;99.90;;;;;;4838547;29;20065;-83
2021/12/01 09:38:40;;;;;;;7.53;0.52;;;9.20;99.90;;;;;;4815983;29;20212;-83
2021/12/01 09:41:07;;;;;;;6.28;0.47;;;9.20;99.90;;;;;;4841848;29;20567;-81
2021/12/01 09:43:33;;;;;;;5.28;0.68;;;8.80;99.90;;;;;;4841971;29;20050;-85
2021/12/01 09:46:04;;;;;;;6.85;0.80;;;8.80;99.90;;;;;;4841122;29;20110;-82
2021/12/01 09:48:31;;;;;;;8.60;0.90;;;8.00;99.90;;;;;;4789241;29;20103;-81
2021/12/01 09:50:57;;;;;;;7.32;0.60;;;9.80;99.90;;;;;;4805707;29;20130;-81
2021/12/01 09:53:23;;;;;;;8.07;1.10;;;8.60;99.90;;;;;;4805989;29;20499;-82
2021/12/01 09:55:49;;;;;;;2.55;0.57;;;9.60;99.90;;;;;;4805899;29;20093;-81
2021/12/01 09:58:24;;;;;;;4.72;0.50;;;8.70;99.90;;;;;;4789274;29;20078;-87
2021/12/01 10:00:55;;;;;;;3.90;0.30;;;9.60;99.90;;;;;;4805699;29;20141;-81
2021/12/01 10:03:22;;;;;;;7.72;0.47;;;8.70;99.90;;;;;;4789755;29;20057;-84
2021/12/01 10:06:10;;;;;;;4.47;0.50;;;9.40;99.90;;;;;;4789291;29;20192;-81
2021/12/01 10:08:43;;;;;;;6.07;0.85;;;8.70;99.90;;;;;;4805495;29;20059;-80
2021/12/01 10:11:13;;;;;;;6.68;0.50;;;8.80;99.90;;;;;;4789379;29;20050;-80
2021/12/01 10:13:42;;;;;;;6.22;0.90;;;8.80;99.90;;;;;;4805310;29;20126;-81
2021/12/01 10:16:10;;;;;;;9.73;0.73;;;8.80;99.90;;;;;;4809053;29;20050;-81
2021/12/01 10:18:48;;;;;;;10.70;0.68;;;8.90;99.90;;;;;;4793000;29;20512;-81
2021/12/01 10:21:21;;;;;;;9.02;0.70;;;8.90;99.90;;;;;;4809168;29;20115;-80
2021/12/01 10:23:52;;;;;;;6.43;0.65;;;9.00;99.90;;;;;;4808998;29;20095;-80
2021/12/01 10:26:25;;;;;;;9.65;0.85;;;9.00;99.90;;;;;;4792913;29;20089;-82
2021/12/01 10:28:56;;;;;;;11.68;1.10;;;9.10;99.90;;;;;;4809108;29;20093;-81
2021/12/01 10:31:33;;;;;;;6.13;0.80;;;9.00;99.90;;;;;;4809197;29;20059;-82
2021/12/01 10:34:24;;;;;;;9.50;1.33;;;9.30;99.90;;;;;;4792781;29;20146;-82
2021/12/01 10:37:31;;;;;;;6.65;1.00;;;9.10;99.90;;;;;;4792768;29;20070;-81
2021/12/01 10:40:12;;;;;;;4.30;0.47;;;9.00;99.90;;;;;;4792500;29;20066;-82
2021/12/01 10:42:58;;;;;;;8.88;1.20;;;9.10;99.90;;;;;;4807390;29;20065;-82
2021/12/01 10:45:28;;;;;;;3.25;0.88;;;9.10;99.90;;;;;;4808817;29;20412;-81
2021/12/01 10:47:55;;;;;;;4.22;0.50;;;9.10;99.90;;;;;;4792523;29;20055;-82
2021/12/01 10:50:23;;;;;;;9.02;0.65;;;9.10;99.90;;;;;;4808630;29;20107;-81
2021/12/01 10:52:52;;;;;;;6.82;0.70;;;9.00;99.90;;;;;;4792483;29;20059;-81
2021/12/01 10:55:21;;;;;;;6.10;0.80;;;9.00;99.90;;;;;;4792256;29;20066;-81
2021/12/01 10:57:54;;;;;;;9.63;0.80;;;9.20;99.90;;;;;;4792410;29;20071;-83
2021/12/01 11:00:23;;;;;;;11.52;1.80;;;9.60;99.90;;;;;;4792424;29;20059;-82
2021/12/01 11:02:50;;;;;;;8.55;1.52;;;9.00;99.90;;;;;;4792503;29;20055;-80
2021/12/01 11:05:28;;;;;;;7.10;0.82;;;9.00;99.90;;;;;;4777402;29;20086;-82
2021/12/01 11:07:54;;;;;;;9.98;0.90;;;9.00;99.90;;;;;;4808195;29;20116;-81
2021/12/01 11:10:23;;;;;;;8.00;0.80;;;8.90;99.90;;;;;;4808104;29;20059;-81
2021/12/01 11:13:01;;;;;;;5.07;0.70;;;8.90;99.90;;;;;;4808149;29;20054;-81
2021/12/01 11:15:28;;;;;;;5.45;0.63;;;8.90;99.90;;;;;;4808162;29;20119;-81
2021/12/01 11:17:55;;;;;;;6.13;0.70;;;8.90;99.90;;;;;;4791817;29;20489;-80
2021/12/01 11:20:42;;;;;;;5.40;0.73;;;8.90;99.90;;;;;;4808186;29;20047;-81
2021/12/01 11:23:20;;;;;;;8.35;0.80;;;8.90;99.90;;;;;;4776583;29;20137;-85
2021/12/01 11:25:50;;;;;;;8.13;0.80;;;8.80;99.90;;;;;;4807871;29;20119;-85
2021/12/01 11:28:18;;;;;;;11.30;1.50;;;9.40;99.90;;;;;;4807800;29;20520;-86
2021/12/01 11:30:46;;;;;;;9.55;1.02;;;9.30;99.90;;;;;;4807853;29;20059;-84
2021/12/01 11:33:16;;;;;;;9.52;0.85;;;9.60;99.90;;;;;;4807922;29;20115;-85
2021/12/01 11:35:47;;;;;;;13.20;1.88;;;9.90;99.90;;;;;;4806531;29;20058;-85
2021/12/01 11:38:13;;;;;;;12.90;1.73;;;9.70;99.90;;;;;;4807566;29;20066;-87
2021/12/01 11:40:40;;;;;;;10.00;1.27;;;8.90;99.90;;;;;;4807962;29;20051;-87
2021/12/01 11:43:08;;;;;;;16.08;1.67;;;9.90;99.90;;;;;;4776601;29;20101;-87
2021/12/01 11:45:41;;;;;;;17.40;1.60;;;9.50;99.90;;;;;;4807687;29;20065;-87
2021/12/01 11:48:16;;;;;;;7.70;1.25;;;8.80;99.90;;;;;;4807351;29;20102;-86
2021/12/01 11:50:54;;;;;;;18.87;1.97;;;8.60;99.90;;;;;;4807762;29;20070;-87
2021/12/01 11:53:23;;;;;;;10.63;1.20;;;8.40;99.90;;;;;;4791456;29;20493;-86
2021/12/01 11:55:56;;;;;;;7.60;1.20;;;8.40;99.90;;;;;;4807682;29;20123;-80
2021/12/01 11:58:50;;;;;;;9.20;1.30;;;8.30;99.90;;;;;;4791735;29;20058;-85
2021/12/01 12:01:22;;;;;;;13.05;2.45;;;8.30;99.90;;;;;;4805071;29;20067;-81
2021/12/01 12:03:54;;;;;;;11.02;1.42;;;8.40;99.90;;;;;;4807491;29;20468;-84
2021/12/01 12:06:24;;;;;;;18.40;2.13;;;8.30;99.90;;;;;;4791000;29;20066;-82
2021/12/01 12:08:53;;;;;;;14.15;1.25;;;8.30;99.90;;;;;;4790991;29;20070;-82
2021/12/01 12:11:47;;;;;;;22.58;2.95;;;9.10;99.90;;;;;;4790793;29;20055;-83
2021/12/01 12:14:44;;;;;;;9.40;1.20;;;8.30;99.90;;;;;;4807127;29;20119;-82
2021/12/01 12:17:14;;;;;;;16.48;1.35;;;8.20;99.90;;;;;;4733518;30;20113;-81
2021/12/01 12:20:02;;;;;;;15.50;1.67;;;8.20;99.90;;;;;;4719218;30;20056;-82
2021/12/01 12:22:37;;;;;;;13.25;1.40;;;8.60;99.90;;;;;;4733577;30;20057;-81
2021/12/01 12:25:08;;;;;;;14.15;1.77;;;8.20;99.90;;;;;;4719034;30;20070;-84
2021/12/01 12:27:40;;;;;;;14.85;1.70;;;8.10;99.90;;;;;;4733522;30;20088;-82
2021/12/01 12:30:26;;;;;;;9.98;0.90;;;8.10;99.90;;;;;;4733372;30;20068;-83
2021/12/01 12:33:24;;;;;;;12.68;1.20;;;8.10;99.90;;;;;;4733486;30;20064;-83
2021/12/01 12:35:51;;;;;;;7.22;0.85;;;8.10;99.90;;;;;;4733512;30;20250;-84
2021/12/01 12:38:17;;;;;;;7.40;1.02;;;8.00;99.90;;;;;;4732867;30;20103;-87
2021/12/01 12:40:44;;;;;;;5.63;0.65;;;8.10;99.90;;;;;;4733228;30;20060;-84
2021/12/01 12:43:23;;;;;;;8.60;0.80;;;8.00;99.90;;;;;;4733300;30;20071;-84
2021/12/01 12:46:12;;;;;;;6.57;0.90;;;8.00;99.90;;;;;;4733414;30;20095;-83
2021/12/01 12:48:39;;;;;;;6.03;0.90;;;8.00;99.90;;;;;;4733129;30;20139;-86
2021/12/01 12:51:12;;;;;;;11.15;1.27;;;8.20;99.90;;;;;;4732880;30;20120;-79
2021/12/01 12:54:01;;;;;;;9.85;1.00;;;8.00;99.90;;;;;;4773422;29;20504;-81
2021/12/01 12:56:29;;;;;;;9.45;1.05;;;8.00;99.90;;;;;;4809023;29;20058;-82
2021/12/01 12:59:31;;;;;;;16.88;1.35;;;8.70;99.90;;;;;;4824323;29;20547;-81
2021/12/01 13:02:16;;;;;;;9.43;0.98;;;7.90;99.90;;;;;;4808344;29;20057;-81
2021/12/01 13:04:51;;;;;;;10.60;1.25;;;8.00;99.90;;;;;;4768069;30;20109;-82